Startpagina
METAR-TAF:

METAR-TAF

Vliegvelden :

Toamasina, Madagaskar

breedte: 18-07S, lengte: 049-24E, hoogte: 5 m

Actueel weer

Dit bericht is 37 minuten geleden gemaakt, om 23:00 UTC
Weinig wind
Temperatuur 21°C
Vochtigheid 94%
Druk 1020 hPa
Zicht 10 km of meer
Verspreide wolken op 1700 ft
Verspreide wolken op 3300 ft
buien in de omgeving

METAR: FMMT 312300Z 00000KT 9999 VCSH SCT017 SCT033 21/20 Q1020 RERA

Tijdstip: 02:37 (23:37 UTC)

Verwachting

Dit bericht is 37 minuten geleden gemaakt, om 23:00 UTC
Verwachting geldig van 01 om 00 UTC tot 01 om 24 UTC
Wind 8 kt uit het zuidzuidwesten
Zicht 10 km of meer
Weinig wolken op 700 ft
Verspreide wolken op 1700 ft
Gebroken wolken op 3300 ft
Tijdelijke
van 01 om 00 UTC tot 01 om 24 UTC
Zicht: 3500 m
regenbuien

TAF: FMMT 312300Z 0100/0124 20008KT 9999 FEW007 SCT017 BKN033 TEMPO 0100/0124 3500 SHRA

Waarnemingen en weersverwachtingen van meer dan 4000 vliegvelden (METAR en TAF).

De beschikbare stations zijn de gele en rode punten op de kaart.

Ga met uw muis naar het station om de naam te zien.

Klik dan om waarnemingen en weersverwachtingen te zien.

kaart wijzigen: klik op de groene knoppen met een zwart kruis om in te zoomen, op de groene knop met een streepje om uit te zoomen of op de groene pijlen voor aangrenzende kaarten.


METAR-TAF: